createdAt,value
2018-10-03T00:02:26.148Z,61.20
2018-10-03T00:04:56.971Z,61.30
2018-10-03T00:07:28.191Z,61.40
2018-10-03T00:09:58.774Z,61.50
2018-10-03T00:12:29.485Z,61.70
2018-10-03T00:15:02.624Z,61.60
2018-10-03T00:17:33.174Z,61.60
2018-10-03T00:20:04.117Z,61.70
2018-10-03T00:22:34.613Z,61.80
2018-10-03T00:25:05.355Z,61.90
2018-10-03T00:27:35.989Z,62.10
2018-10-03T00:30:07.404Z,62.00
2018-10-03T00:32:38.115Z,62.20
2018-10-03T00:35:08.682Z,62.30
2018-10-03T00:37:39.325Z,62.30
2018-10-03T00:40:10.589Z,62.30
2018-10-03T00:42:41.156Z,62.40
2018-10-03T00:45:11.834Z,63.20
2018-10-03T00:47:42.453Z,62.60
2018-10-03T00:50:13.134Z,62.50
2018-10-03T00:52:43.614Z,62.50
2018-10-03T00:55:14.232Z,62.60
2018-10-03T00:57:44.899Z,62.60
2018-10-03T01:00:15.694Z,62.50
2018-10-03T01:02:46.696Z,62.60
2018-10-03T01:05:17.462Z,62.60
2018-10-03T01:07:47.983Z,62.50
2018-10-03T01:10:18.726Z,62.50
2018-10-03T01:12:49.258Z,62.50
2018-10-03T01:15:19.773Z,62.50
2018-10-03T01:17:50.580Z,62.60
2018-10-03T01:20:21.144Z,62.70
2018-10-03T01:22:51.757Z,62.60
2018-10-03T01:25:22.942Z,62.60
2018-10-03T01:27:53.723Z,62.80
2018-10-03T01:30:24.357Z,62.70
2018-10-03T01:32:55.219Z,62.70
2018-10-03T01:35:25.812Z,62.70
2018-10-03T01:37:56.536Z,62.70
2018-10-03T01:40:27.066Z,62.70
2018-10-03T01:42:57.689Z,62.70
2018-10-03T01:45:28.267Z,62.70
2018-10-03T01:47:58.836Z,62.60
2018-10-03T01:50:29.601Z,62.60
2018-10-03T01:53:00.211Z,62.70
2018-10-03T01:55:31.135Z,62.70
2018-10-03T01:58:01.690Z,62.70
2018-10-03T02:00:32.459Z,63.00
2018-10-03T02:03:03.155Z,62.90
2018-10-03T02:05:33.910Z,62.90
2018-10-03T02:08:04.494Z,62.90
2018-10-03T02:10:35.117Z,62.90
2018-10-03T02:13:06.250Z,63.00
2018-10-03T02:15:36.622Z,63.10
2018-10-03T02:18:07.302Z,63.30
2018-10-03T02:20:38.310Z,63.30
2018-10-03T02:23:08.987Z,63.40
2018-10-03T02:25:39.624Z,63.30
2018-10-03T02:28:10.437Z,63.20
2018-10-03T02:30:41.189Z,63.10
2018-10-03T02:33:11.855Z,63.10
2018-10-03T02:35:42.551Z,63.10
2018-10-03T02:38:13.185Z,63.00
2018-10-03T02:40:43.998Z,63.00
2018-10-03T02:43:14.543Z,63.00
2018-10-03T02:45:47.013Z,63.10
2018-10-03T02:48:18.036Z,63.20
2018-10-03T02:50:48.748Z,63.40
2018-10-03T02:53:19.366Z,63.50
2018-10-03T02:55:50.099Z,63.70
2018-10-03T02:58:20.607Z,63.70
2018-10-03T03:00:51.125Z,63.80
2018-10-03T03:03:22.213Z,63.90
2018-10-03T03:05:53.372Z,64.00
2018-10-03T03:08:24.453Z,64.20
2018-10-03T03:11:02.002Z,64.20
2018-10-03T03:13:33.016Z,64.10
2018-10-03T03:16:03.832Z,64.10
2018-10-03T03:18:34.838Z,64.20
2018-10-03T03:21:05.995Z,64.20
2018-10-03T03:23:36.562Z,64.10
2018-10-03T03:26:07.441Z,64.20
2018-10-03T03:28:38.012Z,64.30
2018-10-03T03:31:08.564Z,64.30
2018-10-03T03:33:39.534Z,64.30
2018-10-03T03:36:10.357Z,64.20
2018-10-03T03:38:44.291Z,64.20
2018-10-03T03:41:15.041Z,64.20
2018-10-03T03:43:45.597Z,64.10
2018-10-03T03:46:16.300Z,64.20
2018-10-03T03:48:47.217Z,64.20
2018-10-03T03:51:17.753Z,64.10
2018-10-03T03:53:48.275Z,64.30
2018-10-03T03:56:18.793Z,64.20
2018-10-03T03:58:49.307Z,64.90
2018-10-03T04:01:20.034Z,64.50
2018-10-03T04:03:50.703Z,64.60
2018-10-03T04:06:21.349Z,64.70
2018-10-03T04:08:52.169Z,65.30
2018-10-03T04:11:22.799Z,65.20
2018-10-03T04:13:53.350Z,65.40
2018-10-03T04:16:23.931Z,65.40
2018-10-03T04:18:54.548Z,65.50
2018-10-03T04:21:29.189Z,65.60
2018-10-03T04:24:00.031Z,65.70
2018-10-03T04:26:30.691Z,65.70
2018-10-03T04:29:01.441Z,65.60
2018-10-03T04:31:32.736Z,65.60
2018-10-03T04:34:04.519Z,65.80
2018-10-03T04:36:35.758Z,65.60
2018-10-03T04:39:09.008Z,65.80
2018-10-03T04:41:39.751Z,65.80
2018-10-03T04:44:10.532Z,65.70
2018-10-03T04:46:41.321Z,65.70
2018-10-03T04:49:12.115Z,65.60
2018-10-03T04:51:42.963Z,65.70
2018-10-03T04:54:13.472Z,65.50
2018-10-03T04:56:44.768Z,65.70
2018-10-03T04:59:15.564Z,65.20
2018-10-03T05:01:46.775Z,65.30
2018-10-03T05:04:17.638Z,65.20
2018-10-03T05:06:48.379Z,65.20
2018-10-03T05:09:19.050Z,65.00
2018-10-03T05:11:49.710Z,65.10
2018-10-03T05:14:20.313Z,65.00
2018-10-03T05:16:51.030Z,64.90
2018-10-03T05:19:21.680Z,65.00
2018-10-03T05:21:53.190Z,64.80
2018-10-03T05:24:23.704Z,64.80
2018-10-03T05:26:54.313Z,64.80
2018-10-03T05:29:25.254Z,64.90
2018-10-03T05:31:55.742Z,64.90
2018-10-03T05:34:26.471Z,64.90
2018-10-03T05:36:56.951Z,65.00
2018-10-03T05:39:27.688Z,65.20
2018-10-03T05:41:58.377Z,65.40
2018-10-03T05:44:28.981Z,65.40
2018-10-03T05:46:59.672Z,65.60
2018-10-03T05:49:30.397Z,65.60
2018-10-03T05:52:01.080Z,65.60
2018-10-03T05:54:31.617Z,65.70
2018-10-03T05:57:02.445Z,65.70
2018-10-03T05:59:33.202Z,65.70
2018-10-03T06:02:04.829Z,65.70
2018-10-03T06:04:35.464Z,65.70
2018-10-03T06:07:06.334Z,65.70
2018-10-03T06:09:36.973Z,65.60
2018-10-03T06:12:07.834Z,65.50
2018-10-03T06:14:38.549Z,65.40
2018-10-03T06:17:09.497Z,65.40
2018-10-03T06:19:40.652Z,65.50
2018-10-03T06:22:11.397Z,65.30
2018-10-03T06:24:42.321Z,65.40
2018-10-03T06:27:12.959Z,65.30
2018-10-03T06:29:44.172Z,65.10
2018-10-03T06:32:15.142Z,65.20
2018-10-03T06:34:46.052Z,65.00
2018-10-03T06:37:16.586Z,64.80
2018-10-03T06:39:47.713Z,64.80
2018-10-03T06:42:18.559Z,64.70
2018-10-03T06:44:49.406Z,64.60
2018-10-03T06:47:20.077Z,64.50
2018-10-03T06:49:51.122Z,64.50
2018-10-03T06:52:22.114Z,65.30
2018-10-03T06:54:53.127Z,64.60
2018-10-03T06:57:23.674Z,64.50
2018-10-03T06:59:54.614Z,64.50
2018-10-03T07:02:24.974Z,64.40
2018-10-03T07:04:55.823Z,64.20
2018-10-03T07:07:26.861Z,64.30
2018-10-03T07:09:57.555Z,65.00
2018-10-03T07:12:28.207Z,64.00
2018-10-03T07:14:59.138Z,63.90
2018-10-03T07:17:29.866Z,64.50
2018-10-03T07:20:00.705Z,63.70
2018-10-03T07:22:31.489Z,63.70
2018-10-03T07:25:02.366Z,63.50
2018-10-03T07:27:32.920Z,63.40
2018-10-03T07:30:10.270Z,63.40
2018-10-03T07:32:40.856Z,63.30
2018-10-03T07:35:12.925Z,63.20
2018-10-03T07:37:43.597Z,63.30
2018-10-03T07:40:14.368Z,63.50
2018-10-03T07:42:45.177Z,64.20
2018-10-03T07:45:15.698Z,63.10
2018-10-03T07:47:46.410Z,63.00
2018-10-03T07:50:17.110Z,62.30
2018-10-03T07:52:47.842Z,62.60
2018-10-03T07:55:18.494Z,62.40
2018-10-03T07:57:49.474Z,62.40
2018-10-03T08:00:26.813Z,62.20
2018-10-03T08:02:58.110Z,62.70
2018-10-03T08:05:29.297Z,62.00
2018-10-03T08:07:59.991Z,61.90
2018-10-03T08:10:30.822Z,61.90
2018-10-03T08:13:01.674Z,61.80
2018-10-03T08:15:32.308Z,61.90
2018-10-03T08:18:03.174Z,61.80
2018-10-03T08:20:33.896Z,61.80
2018-10-03T08:23:04.506Z,61.90
2018-10-03T08:25:35.402Z,61.70
2018-10-03T08:28:06.590Z,61.50
2018-10-03T08:30:37.366Z,61.30
2018-10-03T08:33:08.232Z,61.20
2018-10-03T08:35:39.120Z,61.10
2018-10-03T08:38:09.848Z,61.00
2018-10-03T08:40:41.032Z,61.10
2018-10-03T08:43:11.634Z,61.00
2018-10-03T08:45:42.589Z,60.90
2018-10-03T08:48:13.460Z,60.80
2018-10-03T08:50:44.364Z,60.50
2018-10-03T08:53:15.097Z,60.20
2018-10-03T08:55:45.880Z,60.00
2018-10-03T08:58:16.825Z,59.80
2018-10-03T09:00:47.807Z,59.90
2018-10-03T09:03:18.690Z,59.90
2018-10-03T09:05:49.438Z,59.70
2018-10-03T09:08:19.971Z,59.90
2018-10-03T09:10:50.925Z,60.40
2018-10-03T09:13:21.995Z,59.60
2018-10-03T09:15:52.877Z,59.50
2018-10-03T09:18:23.960Z,59.30
2018-10-03T09:20:54.828Z,59.20
2018-10-03T09:23:25.485Z,59.00
2018-10-03T09:25:56.238Z,59.30
2018-10-03T09:28:27.317Z,59.50
2018-10-03T09:30:58.158Z,59.50
2018-10-03T09:33:29.002Z,59.40
2018-10-03T09:36:01.246Z,58.30
2018-10-03T09:38:31.929Z,58.00
2018-10-03T09:41:02.844Z,58.00
2018-10-03T09:43:33.400Z,58.10
2018-10-03T09:46:04.338Z,57.60
2018-10-03T09:48:34.938Z,57.80
2018-10-03T09:51:05.584Z,57.60
2018-10-03T09:53:36.312Z,57.70
2018-10-03T09:56:06.963Z,57.10
2018-10-03T09:58:38.229Z,55.70
2018-10-03T10:01:19.020Z,54.50
2018-10-03T10:03:50.112Z,53.90
2018-10-03T10:06:22.768Z,53.30
2018-10-03T10:08:53.498Z,52.60
2018-10-03T10:11:24.389Z,52.50
2018-10-03T10:13:55.098Z,52.10
2018-10-03T10:16:25.894Z,52.00
2018-10-03T10:18:57.462Z,51.90
2018-10-03T10:21:28.330Z,51.50
2018-10-03T10:23:58.917Z,51.40
2018-10-03T10:26:29.751Z,51.90
2018-10-03T10:29:00.231Z,52.00
2018-10-03T10:31:30.967Z,52.80
2018-10-03T10:34:01.740Z,53.50
2018-10-03T10:36:32.500Z,53.60
2018-10-03T10:39:04.143Z,53.40
2018-10-03T10:41:35.142Z,52.50
2018-10-03T10:44:06.617Z,51.30
2018-10-03T10:46:37.700Z,51.10
2018-10-03T10:49:08.838Z,50.50
2018-10-03T10:51:39.978Z,50.10
2018-10-03T10:54:10.992Z,49.80
2018-10-03T10:56:41.994Z,49.10
2018-10-03T10:59:13.182Z,48.50
2018-10-03T11:01:43.979Z,48.00
2018-10-03T11:04:14.913Z,47.50
2018-10-03T11:06:45.565Z,47.50
2018-10-03T11:09:16.729Z,47.20
2018-10-03T11:11:47.334Z,47.20
2018-10-03T11:14:18.114Z,47.10
2018-10-03T11:16:48.876Z,47.40
2018-10-03T11:19:19.898Z,47.10
2018-10-03T11:21:50.619Z,46.90
2018-10-03T11:24:21.765Z,47.50
2018-10-03T11:26:53.228Z,46.90
2018-10-03T11:29:23.938Z,47.00
2018-10-03T11:31:55.226Z,46.80
2018-10-03T11:34:26.146Z,46.80
2018-10-03T11:36:56.706Z,48.30
2018-10-03T11:39:27.630Z,49.60
2018-10-03T11:41:58.287Z,49.80
2018-10-03T11:44:29.050Z,50.10
2018-10-03T11:47:00.324Z,49.20
2018-10-03T11:49:31.728Z,49.10
2018-10-03T11:52:03.110Z,48.00
2018-10-03T11:54:34.467Z,47.90
2018-10-03T11:57:06.256Z,47.00
2018-10-03T11:59:37.635Z,45.80
2018-10-03T12:02:09.312Z,44.80
2018-10-03T12:04:40.522Z,43.50
2018-10-03T12:07:11.845Z,42.20
2018-10-03T12:09:43.262Z,41.20
2018-10-03T12:12:14.054Z,40.80
2018-10-03T12:14:45.366Z,40.40
2018-10-03T12:17:16.177Z,39.90
2018-10-03T12:19:46.986Z,40.00
2018-10-03T12:22:17.768Z,39.90
2018-10-03T12:24:48.604Z,40.00
2018-10-03T12:27:19.897Z,40.10
2018-10-03T12:29:50.795Z,40.20
2018-10-03T12:32:21.570Z,40.30
2018-10-03T12:34:52.312Z,40.70
2018-10-03T12:37:23.003Z,40.70
2018-10-03T12:39:53.558Z,40.80
2018-10-03T12:42:24.406Z,41.10
2018-10-03T12:44:55.277Z,42.10
2018-10-03T12:47:26.132Z,42.20
2018-10-03T12:49:56.881Z,42.50
2018-10-03T12:52:28.508Z,42.40
2018-10-03T12:54:59.298Z,42.40
2018-10-03T12:57:29.744Z,41.70
2018-10-03T13:00:00.510Z,41.00
2018-10-03T13:02:31.117Z,40.20
2018-10-03T13:05:01.785Z,39.50
2018-10-03T13:07:32.827Z,39.10
2018-10-03T13:10:03.769Z,38.90
2018-10-03T13:12:34.654Z,39.10
2018-10-03T13:15:05.987Z,39.10
2018-10-03T13:17:36.897Z,39.20
2018-10-03T13:20:09.218Z,39.20
2018-10-03T13:22:39.902Z,39.80
2018-10-03T13:25:10.722Z,39.10
2018-10-03T13:27:42.616Z,39.00
2018-10-03T13:30:13.506Z,39.00
2018-10-03T13:32:44.298Z,39.10
2018-10-03T13:35:14.778Z,39.00
2018-10-03T13:37:45.396Z,39.00
2018-10-03T13:40:16.122Z,39.40
2018-10-03T13:42:46.845Z,38.80
2018-10-03T13:45:17.532Z,38.90
2018-10-03T13:47:48.078Z,38.80
2018-10-03T13:50:19.055Z,38.80
2018-10-03T13:52:49.792Z,39.10
2018-10-03T13:55:20.759Z,39.00
2018-10-03T13:57:51.842Z,39.20
2018-10-03T14:00:22.871Z,39.20
2018-10-03T14:02:53.682Z,39.10
2018-10-03T14:05:24.516Z,39.10
2018-10-03T14:07:55.253Z,39.20
2018-10-03T14:10:25.905Z,39.40
2018-10-03T14:12:56.950Z,39.30
2018-10-03T14:15:27.839Z,39.20
2018-10-03T14:17:58.534Z,38.80
2018-10-03T14:20:29.302Z,38.90
2018-10-03T14:23:00.479Z,39.20
2018-10-03T14:25:31.190Z,39.30
2018-10-03T14:28:02.089Z,39.70
2018-10-03T14:30:32.984Z,39.70
2018-10-03T14:33:04.185Z,39.80
2018-10-03T14:35:35.118Z,39.50
2018-10-03T14:38:06.452Z,39.10
2018-10-03T14:40:37.190Z,38.60
2018-10-03T14:43:08.111Z,38.40
2018-10-03T14:45:38.793Z,38.60
2018-10-03T14:48:09.802Z,38.50
2018-10-03T14:50:40.605Z,38.00
2018-10-03T14:53:11.047Z,38.20
2018-10-03T14:55:41.729Z,38.40
2018-10-03T14:58:12.581Z,38.30
2018-10-03T15:00:43.483Z,37.90
2018-10-03T15:03:14.271Z,37.90
2018-10-03T15:05:45.059Z,37.60
2018-10-03T15:08:15.795Z,37.60
2018-10-03T15:10:46.910Z,37.50
2018-10-03T15:13:17.735Z,37.20
2018-10-03T15:15:48.865Z,37.30
2018-10-03T15:18:19.865Z,37.50
2018-10-03T15:20:51.470Z,37.40
2018-10-03T15:23:22.579Z,37.50
2018-10-03T15:25:53.345Z,37.60
2018-10-03T15:28:24.022Z,37.70
2018-10-03T15:30:54.693Z,37.70
2018-10-03T15:33:25.517Z,37.80
2018-10-03T15:35:56.632Z,38.00
2018-10-03T15:38:27.437Z,38.00
2018-10-03T15:40:58.325Z,38.10
2018-10-03T15:43:29.028Z,38.10
2018-10-03T15:46:00.874Z,38.00
2018-10-03T15:48:31.664Z,38.10
2018-10-03T15:51:02.490Z,38.30
2018-10-03T15:53:33.657Z,38.30
2018-10-03T15:56:04.983Z,38.90
2018-10-03T15:58:35.876Z,38.30
2018-10-03T16:01:06.885Z,38.90
2018-10-03T16:03:37.613Z,38.40
2018-10-03T16:06:08.705Z,38.40
2018-10-03T16:08:39.803Z,38.60
2018-10-03T16:11:10.533Z,38.40
2018-10-03T16:13:41.516Z,38.50
2018-10-03T16:16:12.550Z,38.60
2018-10-03T16:18:43.476Z,38.50
2018-10-03T16:21:14.445Z,38.50
2018-10-03T16:23:45.452Z,38.60
2018-10-03T16:26:16.413Z,38.70
2018-10-03T16:28:47.327Z,38.90
2018-10-03T16:31:18.306Z,39.00
2018-10-03T16:33:49.010Z,39.30
2018-10-03T16:36:19.868Z,39.30
2018-10-03T16:38:50.888Z,39.20
2018-10-03T16:41:22.373Z,39.30
2018-10-03T16:43:53.176Z,39.30
2018-10-03T16:46:23.785Z,39.50
2018-10-03T16:48:54.832Z,39.50
2018-10-03T16:51:25.419Z,39.80
2018-10-03T16:53:56.362Z,39.70
2018-10-03T16:56:27.061Z,40.00
2018-10-03T16:58:57.848Z,40.00
2018-10-03T17:01:28.551Z,40.20
2018-10-03T17:03:59.903Z,40.30
2018-10-03T17:06:30.809Z,40.20
2018-10-03T17:09:02.157Z,40.40
2018-10-03T17:11:33.008Z,40.40
2018-10-03T17:14:28.178Z,40.30
2018-10-03T17:16:58.927Z,40.40
2018-10-03T17:19:30.234Z,40.40
2018-10-03T17:22:01.452Z,40.50
2018-10-03T17:24:33.761Z,40.60
2018-10-03T17:27:04.748Z,40.70
2018-10-03T17:29:35.891Z,40.70
2018-10-03T17:32:07.155Z,40.70
2018-10-03T17:34:38.392Z,40.80
2018-10-03T17:37:09.261Z,40.90
2018-10-03T17:39:40.061Z,41.00
2018-10-03T17:42:10.789Z,41.10
2018-10-03T17:44:41.799Z,41.20
2018-10-03T17:47:12.870Z,41.30
2018-10-03T17:49:50.214Z,41.40
2018-10-03T17:52:21.084Z,41.50
2018-10-03T17:54:51.986Z,41.70
2018-10-03T17:57:22.845Z,41.70
2018-10-03T17:59:53.450Z,41.80
2018-10-03T18:02:24.594Z,41.80
2018-10-03T18:04:55.470Z,41.50
2018-10-03T18:07:26.568Z,41.90
2018-10-03T18:09:57.410Z,42.20
2018-10-03T18:12:28.461Z,42.30
2018-10-03T18:14:59.473Z,42.50
2018-10-03T18:17:30.527Z,42.50
2018-10-03T18:20:01.382Z,43.20
2018-10-03T18:22:32.305Z,42.70
2018-10-03T18:25:03.175Z,42.80
2018-10-03T18:27:34.234Z,42.80
2018-10-03T18:30:05.901Z,43.00
2018-10-03T18:32:37.246Z,43.00
2018-10-03T18:35:08.802Z,43.00
2018-10-03T18:37:39.850Z,43.10
2018-10-03T18:40:10.857Z,43.30
2018-10-03T18:42:42.734Z,43.50
2018-10-03T18:45:13.819Z,43.60
2018-10-03T18:47:45.106Z,43.60
2018-10-03T18:50:16.753Z,43.70
2018-10-03T18:52:47.810Z,43.80
2018-10-03T18:55:18.751Z,44.10
2018-10-03T18:57:49.893Z,43.90
2018-10-03T19:00:21.246Z,44.00
2018-10-03T19:02:52.292Z,43.90
2018-10-03T19:05:23.443Z,44.50
2018-10-03T19:07:54.687Z,44.00
2018-10-03T19:10:25.759Z,44.20
2018-10-03T19:12:56.976Z,44.30
2018-10-03T19:15:27.901Z,44.30
2018-10-03T19:17:58.851Z,44.30
2018-10-03T19:20:30.297Z,44.50
2018-10-03T19:23:01.350Z,44.60
2018-10-03T19:25:32.602Z,44.60
2018-10-03T19:28:03.935Z,44.60
2018-10-03T19:30:35.195Z,44.60
2018-10-03T19:33:06.201Z,44.20
2018-10-03T19:35:37.756Z,44.80
2018-10-03T19:38:09.715Z,45.00
2018-10-03T19:40:40.619Z,45.00
2018-10-03T19:43:11.827Z,45.20
2018-10-03T19:45:42.898Z,45.00
2018-10-03T19:48:13.971Z,45.20
2018-10-03T19:50:44.803Z,45.40
2018-10-03T19:53:19.661Z,45.40
2018-10-03T19:55:50.426Z,45.90
2018-10-03T19:58:21.778Z,46.30
2018-10-03T20:00:52.533Z,45.60
2018-10-03T20:03:23.563Z,45.80
2018-10-03T20:05:54.410Z,45.80
2018-10-03T20:08:25.016Z,45.80
2018-10-03T20:10:55.741Z,45.90
2018-10-03T20:13:26.277Z,45.90
2018-10-03T20:15:57.176Z,46.10
2018-10-03T20:18:27.970Z,46.10
2018-10-03T20:20:58.773Z,46.20
2018-10-03T20:23:29.601Z,46.30
2018-10-03T20:26:00.579Z,46.50
2018-10-03T20:28:31.296Z,46.40
2018-10-03T20:31:02.026Z,46.50
2018-10-03T20:33:32.645Z,46.50
2018-10-03T20:36:03.756Z,46.50
2018-10-03T20:38:34.464Z,46.60
2018-10-03T20:41:05.525Z,46.60
2018-10-03T20:43:36.417Z,46.70
2018-10-03T20:46:07.758Z,46.90
2018-10-03T20:48:38.430Z,46.90
2018-10-03T20:51:09.530Z,46.90
2018-10-03T20:53:40.591Z,47.10
2018-10-03T20:56:11.330Z,47.10
2018-10-03T20:58:42.352Z,47.20
2018-10-03T21:01:13.106Z,47.30
2018-10-03T21:03:43.884Z,47.90
2018-10-03T21:06:14.606Z,47.40
2018-10-03T21:08:45.831Z,48.20
2018-10-03T21:11:16.855Z,47.60
2018-10-03T21:13:47.583Z,47.60
2018-10-03T21:16:18.598Z,47.70
2018-10-03T21:18:49.168Z,47.80
2018-10-03T21:21:20.045Z,47.90
2018-10-03T21:23:50.642Z,48.00
2018-10-03T21:26:21.456Z,48.10
2018-10-03T21:28:52.472Z,48.20
2018-10-03T21:31:23.346Z,48.20
2018-10-03T21:33:53.902Z,48.30
2018-10-03T21:36:24.582Z,48.40
2018-10-03T21:38:55.203Z,48.30
2018-10-03T21:41:26.405Z,48.40
2018-10-03T21:43:57.237Z,48.40
2018-10-03T21:46:28.366Z,48.50
2018-10-03T21:48:58.906Z,48.60
2018-10-03T21:51:29.921Z,48.70
2018-10-03T21:54:01.089Z,48.60
2018-10-03T21:56:32.240Z,48.70
2018-10-03T21:59:04.201Z,48.80
2018-10-03T22:01:34.778Z,49.00
2018-10-03T22:04:05.529Z,49.10
2018-10-03T22:06:36.189Z,49.20
2018-10-03T22:09:08.528Z,49.30
2018-10-03T22:11:39.090Z,49.40
2018-10-03T22:14:10.303Z,49.40
2018-10-03T22:16:40.925Z,49.60
2018-10-03T22:19:11.526Z,49.70
2018-10-03T22:21:42.212Z,49.70
2018-10-03T22:24:12.969Z,49.80
2018-10-03T22:26:43.727Z,49.80
2018-10-03T22:29:14.748Z,49.80
2018-10-03T22:31:45.478Z,49.80
2018-10-03T22:34:19.113Z,50.00
2018-10-03T22:36:49.777Z,50.10
2018-10-03T22:39:20.561Z,50.00
2018-10-03T22:41:51.075Z,50.20
2018-10-03T22:44:21.647Z,50.30
2018-10-03T22:46:52.213Z,50.40
2018-10-03T22:49:22.825Z,50.30
2018-10-03T22:51:53.887Z,50.50
2018-10-03T22:54:24.510Z,50.50
2018-10-03T22:56:55.350Z,50.50
2018-10-03T22:59:25.967Z,50.60
2018-10-03T23:01:57.067Z,50.50
2018-10-03T23:04:28.876Z,51.00
2018-10-03T23:06:59.877Z,50.60
2018-10-03T23:09:30.433Z,50.70
2018-10-03T23:12:01.131Z,50.70
2018-10-03T23:14:31.882Z,50.80
2018-10-03T23:17:02.399Z,50.90
2018-10-03T23:19:32.943Z,50.90
2018-10-03T23:22:03.755Z,51.00
2018-10-03T23:24:34.554Z,51.00
2018-10-03T23:27:05.670Z,51.10
2018-10-03T23:29:36.251Z,51.20
2018-10-03T23:32:07.058Z,51.20
2018-10-03T23:34:37.727Z,51.40
2018-10-03T23:37:09.278Z,51.50
2018-10-03T23:39:39.901Z,51.50
2018-10-03T23:42:10.576Z,51.60
2018-10-03T23:44:41.667Z,51.50
2018-10-03T23:47:12.331Z,51.60
2018-10-03T23:49:43.074Z,51.60
2018-10-03T23:52:13.845Z,51.80
2018-10-03T23:54:44.539Z,51.90
2018-10-03T23:57:15.139Z,52.10
2018-10-03T23:59:46.035Z,52.20
